createdAt,value
2017-08-09T00:02:05.601Z,23.50
2017-08-09T00:04:33.089Z,23.40
2017-08-09T00:07:00.550Z,23.40
2017-08-09T00:09:28.016Z,23.40
2017-08-09T00:11:55.500Z,23.60
2017-08-09T00:14:22.987Z,24.20
2017-08-09T00:16:50.580Z,24.70
2017-08-09T00:19:18.833Z,25.10
2017-08-09T00:21:46.302Z,25.40
2017-08-09T00:24:13.763Z,25.60
2017-08-09T00:26:41.262Z,25.80
2017-08-09T00:29:09.492Z,26.20
2017-08-09T00:31:36.980Z,26.20
2017-08-09T00:34:05.220Z,26.50
2017-08-09T00:36:32.738Z,26.40
2017-08-09T00:39:00.336Z,26.50
2017-08-09T00:41:27.833Z,26.50
2017-08-09T00:43:55.294Z,26.60
2017-08-09T00:46:22.789Z,26.60
2017-08-09T00:48:50.263Z,26.70
2017-08-09T00:51:17.734Z,26.70
2017-08-09T00:53:45.226Z,26.70
2017-08-09T00:56:12.736Z,26.80
2017-08-09T00:58:40.224Z,26.80
2017-08-09T01:01:07.702Z,26.80
2017-08-09T01:03:35.179Z,26.80
2017-08-09T01:06:02.643Z,26.80
2017-08-09T01:08:30.128Z,26.80
2017-08-09T01:10:57.602Z,26.90
2017-08-09T01:13:25.107Z,26.90
2017-08-09T01:15:52.581Z,26.90
2017-08-09T01:18:20.048Z,26.90
2017-08-09T01:20:47.593Z,26.90
2017-08-09T01:23:15.058Z,26.90
2017-08-09T01:25:42.549Z,26.90
2017-08-09T01:28:10.018Z,26.90
2017-08-09T01:30:37.485Z,26.90
2017-08-09T01:33:04.939Z,26.90
2017-08-09T01:35:32.401Z,26.90
2017-08-09T01:37:59.858Z,26.90
2017-08-09T01:40:27.313Z,26.90
2017-08-09T01:42:54.801Z,26.90
2017-08-09T01:45:23.029Z,26.80
2017-08-09T01:47:50.495Z,26.80
2017-08-09T01:50:17.974Z,26.80
2017-08-09T01:52:45.432Z,26.80
2017-08-09T01:55:13.658Z,26.70
2017-08-09T01:57:41.133Z,26.70
2017-08-09T02:00:08.586Z,26.70
2017-08-09T02:02:36.060Z,26.70
2017-08-09T02:05:03.520Z,26.70
2017-08-09T02:07:30.994Z,26.70
2017-08-09T02:09:58.448Z,26.70
2017-08-09T02:12:25.910Z,26.70
2017-08-09T02:14:53.360Z,26.70
2017-08-09T02:17:20.818Z,26.70
2017-08-09T02:19:49.049Z,26.70
2017-08-09T02:22:16.539Z,26.60
2017-08-09T02:24:44.002Z,26.60
2017-08-09T02:27:11.453Z,26.60
2017-08-09T02:29:38.905Z,26.60
2017-08-09T02:32:06.374Z,26.60
2017-08-09T02:34:33.877Z,26.60
2017-08-09T02:37:01.358Z,26.60
2017-08-09T02:39:28.829Z,26.60
2017-08-09T02:41:56.295Z,26.50
2017-08-09T02:44:23.777Z,26.50
2017-08-09T02:46:51.242Z,26.50
2017-08-09T02:49:19.477Z,26.50
2017-08-09T02:51:46.948Z,26.50
2017-08-09T02:54:14.470Z,26.50
2017-08-09T02:56:41.935Z,26.50
2017-08-09T02:59:09.416Z,26.50
2017-08-09T03:01:36.889Z,26.50
2017-08-09T03:04:04.367Z,26.50
2017-08-09T03:06:31.838Z,26.50
2017-08-09T03:08:59.294Z,26.50
2017-08-09T03:11:26.782Z,26.50
2017-08-09T03:13:54.244Z,26.50
2017-08-09T03:16:21.726Z,26.50
2017-08-09T03:18:49.190Z,26.50
2017-08-09T03:21:16.650Z,26.40
2017-08-09T03:23:44.108Z,26.50
2017-08-09T03:26:11.585Z,26.50
2017-08-09T03:28:39.031Z,26.50
2017-08-09T03:31:06.506Z,26.40
2017-08-09T03:33:33.968Z,26.40
2017-08-09T03:36:01.447Z,26.40
2017-08-09T03:38:28.916Z,26.40
2017-08-09T03:40:56.394Z,26.40
2017-08-09T03:43:23.851Z,26.40
2017-08-09T03:45:51.305Z,26.40
2017-08-09T03:48:18.780Z,26.40
2017-08-09T03:50:46.234Z,26.40
2017-08-09T03:53:13.705Z,26.40
2017-08-09T03:55:41.164Z,26.40
2017-08-09T03:58:08.622Z,26.40
2017-08-09T04:00:36.095Z,26.40
2017-08-09T04:03:03.575Z,26.30
2017-08-09T04:05:31.037Z,26.30
2017-08-09T04:07:58.522Z,26.40
2017-08-09T04:10:25.992Z,26.30
2017-08-09T04:12:53.468Z,26.30
2017-08-09T04:15:20.927Z,26.30
2017-08-09T04:17:48.419Z,26.30
2017-08-09T04:20:15.882Z,26.30
2017-08-09T04:22:43.355Z,26.30
2017-08-09T04:25:10.823Z,26.30
2017-08-09T04:27:38.295Z,26.30
2017-08-09T04:30:05.768Z,26.30
2017-08-09T04:32:33.994Z,26.30
2017-08-09T04:35:01.471Z,26.30
2017-08-09T04:37:28.934Z,26.30
2017-08-09T04:39:56.407Z,26.30
2017-08-09T04:42:23.885Z,26.30
2017-08-09T04:44:51.361Z,26.30
2017-08-09T04:47:18.815Z,26.30
2017-08-09T04:49:46.300Z,26.30
2017-08-09T04:52:13.752Z,26.30
2017-08-09T04:54:41.234Z,26.30
2017-08-09T04:57:08.697Z,26.30
2017-08-09T04:59:36.156Z,26.30
2017-08-09T05:02:03.630Z,26.30
2017-08-09T05:04:31.090Z,26.30
2017-08-09T05:06:58.574Z,26.30
2017-08-09T05:09:26.042Z,26.30
2017-08-09T05:11:53.505Z,26.30
2017-08-09T05:14:20.965Z,26.30
2017-08-09T05:16:48.507Z,26.30
2017-08-09T05:19:15.993Z,26.30
2017-08-09T05:21:43.459Z,26.30
2017-08-09T05:24:10.937Z,26.30
2017-08-09T05:26:38.531Z,26.30
2017-08-09T05:29:05.998Z,26.30
2017-08-09T05:31:33.469Z,26.30
2017-08-09T05:34:01.054Z,26.30
2017-08-09T05:36:28.537Z,26.30
2017-08-09T05:38:56.796Z,26.30
2017-08-09T05:41:24.241Z,26.30
2017-08-09T05:43:51.714Z,26.30
2017-08-09T05:46:19.190Z,26.30
2017-08-09T05:48:46.648Z,26.30
2017-08-09T05:51:14.108Z,26.30
2017-08-09T05:53:41.572Z,26.30
2017-08-09T05:56:09.073Z,26.30
2017-08-09T05:58:36.537Z,26.30
2017-08-09T06:01:03.997Z,26.30
2017-08-09T06:03:31.488Z,26.30
2017-08-09T06:05:59.721Z,26.30
2017-08-09T06:08:27.195Z,26.30
2017-08-09T06:10:54.665Z,26.30
2017-08-09T06:13:22.135Z,26.40
2017-08-09T06:15:49.887Z,26.30
2017-08-09T06:18:17.356Z,26.30
2017-08-09T06:20:46.395Z,26.30
2017-08-09T06:23:13.864Z,26.30
2017-08-09T06:25:41.337Z,26.40
2017-08-09T06:28:08.825Z,26.40
2017-08-09T06:30:36.325Z,26.40
2017-08-09T06:33:03.787Z,26.40
2017-08-09T06:35:31.240Z,26.40
2017-08-09T06:37:58.735Z,26.40
2017-08-09T06:40:27.089Z,26.40
2017-08-09T06:42:54.549Z,26.50
2017-08-09T06:45:22.026Z,26.50
2017-08-09T06:47:49.503Z,26.50
2017-08-09T06:50:16.987Z,26.50
2017-08-09T06:52:44.469Z,26.50
2017-08-09T06:55:11.939Z,26.50
2017-08-09T06:57:39.412Z,26.60
2017-08-09T07:00:06.879Z,26.50
2017-08-09T07:02:34.350Z,26.60
2017-08-09T07:05:01.803Z,26.60
2017-08-09T07:07:29.340Z,26.60
2017-08-09T07:09:57.001Z,26.60
2017-08-09T07:12:24.488Z,26.70
2017-08-09T07:14:52.729Z,26.80
2017-08-09T07:17:20.259Z,26.80
2017-08-09T07:19:47.735Z,26.90
2017-08-09T07:22:15.212Z,26.90
2017-08-09T07:24:42.697Z,27.00
2017-08-09T07:27:10.312Z,27.10
2017-08-09T07:29:37.778Z,27.10
2017-08-09T07:32:05.265Z,27.10
2017-08-09T07:34:32.739Z,27.10
2017-08-09T07:37:00.972Z,27.10
2017-08-09T07:39:28.455Z,27.10
2017-08-09T07:41:55.922Z,27.10
2017-08-09T07:44:24.166Z,27.20
2017-08-09T07:46:51.654Z,27.20
2017-08-09T07:49:19.146Z,27.30
2017-08-09T07:51:46.612Z,27.30
2017-08-09T07:54:14.096Z,27.40
2017-08-09T07:56:41.556Z,27.40
2017-08-09T07:59:09.028Z,27.40
2017-08-09T08:01:36.493Z,27.40
2017-08-09T08:04:03.961Z,27.40
2017-08-09T08:06:31.550Z,27.30
2017-08-09T08:08:59.059Z,27.30
2017-08-09T08:11:26.514Z,27.30
2017-08-09T08:13:54.084Z,27.20
2017-08-09T08:16:21.656Z,27.30
2017-08-09T08:18:49.187Z,27.30
2017-08-09T08:21:16.847Z,27.30
2017-08-09T08:23:44.334Z,27.30
2017-08-09T08:26:11.858Z,27.30
2017-08-09T08:28:39.388Z,27.30
2017-08-09T08:31:07.065Z,27.30
2017-08-09T08:33:34.623Z,27.30
2017-08-09T08:36:02.163Z,27.30
2017-08-09T08:38:29.724Z,27.30
2017-08-09T08:40:57.293Z,27.30
2017-08-09T08:43:24.790Z,27.30
2017-08-09T08:45:52.351Z,27.40
2017-08-09T08:48:19.896Z,27.40
2017-08-09T08:50:47.400Z,27.50
2017-08-09T08:53:14.931Z,27.50
2017-08-09T08:55:42.443Z,27.50
2017-08-09T08:58:09.930Z,27.60
2017-08-09T09:00:37.392Z,27.80
2017-08-09T09:03:04.897Z,27.80
2017-08-09T09:05:32.357Z,27.70
2017-08-09T09:07:59.831Z,27.70
2017-08-09T09:10:27.300Z,27.70
2017-08-09T09:12:54.778Z,27.70
2017-08-09T09:15:22.261Z,27.70
2017-08-09T09:17:50.080Z,27.70
2017-08-09T09:20:17.658Z,27.70
2017-08-09T09:22:45.196Z,27.70
2017-08-09T09:25:12.689Z,27.70
2017-08-09T09:27:40.201Z,27.80
2017-08-09T09:30:07.741Z,27.80
2017-08-09T09:32:35.313Z,27.80
2017-08-09T09:35:02.891Z,27.80
2017-08-09T09:37:30.415Z,27.80
2017-08-09T09:39:58.063Z,27.90
2017-08-09T09:42:25.537Z,28.00
2017-08-09T09:44:53.031Z,28.10
2017-08-09T09:47:20.559Z,28.20
2017-08-09T09:49:48.180Z,28.20
2017-08-09T09:52:15.777Z,28.20
2017-08-09T09:57:16.226Z,28.20
2017-08-09T09:59:43.793Z,28.30
2017-08-09T10:02:11.316Z,28.30
2017-08-09T10:04:38.814Z,28.20
2017-08-09T10:07:06.384Z,28.30
2017-08-09T10:09:33.912Z,28.30
2017-08-09T10:12:01.427Z,28.40
2017-08-09T10:14:29.051Z,28.50
2017-08-09T10:16:56.545Z,28.50
2017-08-09T10:19:24.005Z,28.50
2017-08-09T10:21:51.507Z,28.50
2017-08-09T10:24:18.976Z,28.40
2017-08-09T10:26:46.463Z,28.30
2017-08-09T10:29:13.943Z,28.30
2017-08-09T10:31:41.429Z,28.30
2017-08-09T10:34:09.659Z,28.80
2017-08-09T10:36:37.160Z,28.80
2017-08-09T10:39:04.638Z,29.10
2017-08-09T10:41:32.093Z,29.10
2017-08-09T10:43:59.546Z,29.10
2017-08-09T10:46:27.011Z,29.20
2017-08-09T10:48:54.469Z,29.30
2017-08-09T10:51:21.934Z,29.50
2017-08-09T10:53:49.440Z,29.80
2017-08-09T10:56:16.905Z,30.00
2017-08-09T10:58:44.398Z,30.20
2017-08-09T11:01:11.876Z,30.20
2017-08-09T11:03:39.346Z,30.20
2017-08-09T11:06:06.834Z,30.00
2017-08-09T11:08:34.347Z,29.80
2017-08-09T11:11:01.826Z,30.00
2017-08-09T11:13:29.318Z,30.30
2017-08-09T11:15:56.801Z,30.60
2017-08-09T11:18:24.280Z,30.80
2017-08-09T11:20:51.784Z,31.10
2017-08-09T11:23:19.241Z,31.20
2017-08-09T11:25:46.720Z,31.30
2017-08-09T11:28:14.206Z,31.50
2017-08-09T11:30:41.694Z,31.60
2017-08-09T11:33:09.168Z,31.80
2017-08-09T11:35:36.655Z,31.70
2017-08-09T11:38:04.894Z,31.50
2017-08-09T11:40:32.366Z,31.50
2017-08-09T11:42:59.836Z,31.70
2017-08-09T11:45:27.323Z,32.00
2017-08-09T11:47:54.798Z,32.00
2017-08-09T11:50:22.272Z,31.90
2017-08-09T11:52:49.761Z,32.20
2017-08-09T11:55:17.214Z,32.20
2017-08-09T11:57:44.761Z,32.40
2017-08-09T12:00:12.218Z,32.60
2017-08-09T12:02:39.690Z,32.60
2017-08-09T12:05:07.169Z,32.60
2017-08-09T12:07:34.647Z,32.70
2017-08-09T12:10:02.115Z,32.80
2017-08-09T12:12:29.587Z,33.00
2017-08-09T12:14:57.049Z,33.10
2017-08-09T12:17:24.524Z,33.20
2017-08-09T12:19:51.980Z,33.30
2017-08-09T12:22:19.469Z,33.40
2017-08-09T12:24:46.926Z,33.50
2017-08-09T12:27:14.421Z,33.60
2017-08-09T12:29:41.929Z,33.70
2017-08-09T12:32:09.383Z,33.80
2017-08-09T12:34:36.857Z,33.80
2017-08-09T12:37:04.306Z,33.90
2017-08-09T12:39:31.760Z,33.90
2017-08-09T12:41:59.222Z,34.00
2017-08-09T12:44:27.463Z,34.00
2017-08-09T12:46:54.922Z,34.00
2017-08-09T12:49:22.398Z,33.90
2017-08-09T12:51:49.872Z,33.90
2017-08-09T12:54:18.123Z,34.10
2017-08-09T12:56:45.605Z,34.10
2017-08-09T12:59:13.099Z,34.20
2017-08-09T13:01:40.575Z,34.20
2017-08-09T13:04:08.063Z,34.10
2017-08-09T13:06:35.521Z,34.20
2017-08-09T13:09:03.023Z,34.20
2017-08-09T13:11:30.509Z,34.30
2017-08-09T13:13:57.990Z,34.30
2017-08-09T13:16:25.462Z,34.10
2017-08-09T13:18:52.933Z,33.90
2017-08-09T13:21:20.433Z,33.80
2017-08-09T13:23:47.947Z,33.90
2017-08-09T13:26:15.454Z,33.90
2017-08-09T13:28:42.918Z,33.90
2017-08-09T13:31:10.402Z,34.00
2017-08-09T13:33:37.864Z,33.70
2017-08-09T13:36:05.335Z,33.60
2017-08-09T13:38:32.843Z,33.50
2017-08-09T13:41:00.336Z,33.70
2017-08-09T13:43:27.829Z,33.70
2017-08-09T13:45:55.303Z,33.80
2017-08-09T13:48:22.789Z,33.80
2017-08-09T13:50:50.249Z,33.90
2017-08-09T13:53:17.730Z,33.90
2017-08-09T13:55:45.191Z,33.90
2017-08-09T13:58:12.664Z,33.60
2017-08-09T14:00:40.120Z,33.50
2017-08-09T14:03:07.605Z,33.60
2017-08-09T14:05:35.077Z,33.60
2017-08-09T14:08:02.551Z,33.70
2017-08-09T14:10:30.006Z,33.70
2017-08-09T14:12:57.482Z,33.70
2017-08-09T14:15:24.959Z,33.70
2017-08-09T14:17:52.424Z,33.70
2017-08-09T14:20:19.892Z,33.60
2017-08-09T14:22:47.366Z,33.40
2017-08-09T14:25:14.839Z,33.40
2017-08-09T14:27:42.304Z,33.30
2017-08-09T14:30:09.790Z,33.30
2017-08-09T14:32:37.250Z,33.30
2017-08-09T14:35:04.720Z,33.20
2017-08-09T14:37:32.173Z,33.10
2017-08-09T14:39:59.653Z,33.10
2017-08-09T14:42:27.105Z,33.10
2017-08-09T14:44:54.594Z,33.10
2017-08-09T14:47:22.051Z,32.90
2017-08-09T14:49:49.509Z,33.00
2017-08-09T14:52:16.993Z,33.00
2017-08-09T14:54:44.464Z,32.90
2017-08-09T14:57:11.941Z,32.90
2017-08-09T14:59:39.410Z,32.80
2017-08-09T15:02:06.900Z,32.80
2017-08-09T15:04:34.357Z,32.70
2017-08-09T15:07:01.854Z,32.70
2017-08-09T15:09:29.314Z,32.70
2017-08-09T15:11:56.777Z,32.60
2017-08-09T15:14:24.998Z,32.40
2017-08-09T15:16:52.473Z,32.40
2017-08-09T15:19:20.071Z,32.40
2017-08-09T15:21:47.612Z,32.40
2017-08-09T15:24:15.077Z,32.30
2017-08-09T15:26:43.328Z,32.10
2017-08-09T15:29:10.806Z,32.10
2017-08-09T15:31:38.268Z,32.10
2017-08-09T15:34:05.735Z,32.00
2017-08-09T15:36:33.201Z,32.00
2017-08-09T15:39:00.682Z,31.90
2017-08-09T15:41:28.158Z,31.90
2017-08-09T15:43:55.777Z,31.80
2017-08-09T15:46:23.254Z,31.70
2017-08-09T15:48:50.734Z,31.70
2017-08-09T15:51:18.192Z,31.60
2017-08-09T15:53:45.665Z,31.60
2017-08-09T15:56:13.119Z,31.50
2017-08-09T15:58:40.578Z,31.40
2017-08-09T16:01:08.047Z,31.30
2017-08-09T16:03:35.533Z,31.30
2017-08-09T16:06:03.769Z,31.10
2017-08-09T16:08:31.229Z,31.10
2017-08-09T16:10:58.709Z,31.10
2017-08-09T16:13:26.242Z,31.00
2017-08-09T16:15:53.908Z,31.00
2017-08-09T16:18:21.381Z,31.00
2017-08-09T16:20:48.853Z,30.90
2017-08-09T16:23:16.302Z,30.90
2017-08-09T16:25:43.766Z,30.90
2017-08-09T16:28:12.014Z,30.80
2017-08-09T16:30:39.484Z,30.80
2017-08-09T16:33:06.944Z,30.80
2017-08-09T16:35:34.415Z,30.80
2017-08-09T16:38:01.872Z,30.70
2017-08-09T16:40:30.122Z,30.60
2017-08-09T16:42:57.587Z,30.60
2017-08-09T16:45:25.042Z,30.60
2017-08-09T16:47:52.524Z,30.60
2017-08-09T16:50:20.765Z,30.50
2017-08-09T16:52:48.244Z,30.50
2017-08-09T16:55:15.705Z,30.50
2017-08-09T16:57:43.183Z,30.50
2017-08-09T17:00:11.407Z,30.50
2017-08-09T17:02:38.886Z,30.50
2017-08-09T17:05:06.353Z,30.50
2017-08-09T17:07:33.814Z,30.50
2017-08-09T17:10:02.049Z,30.40
2017-08-09T17:12:29.553Z,30.40
2017-08-09T17:14:57.797Z,30.40
2017-08-09T17:17:25.279Z,30.40
2017-08-09T17:19:52.725Z,30.40
2017-08-09T17:22:20.209Z,30.40
2017-08-09T17:24:47.675Z,30.30
2017-08-09T17:27:15.137Z,30.30
2017-08-09T17:29:42.605Z,30.30
2017-08-09T17:32:10.071Z,30.30
2017-08-09T17:34:37.538Z,30.30
2017-08-09T17:37:05.000Z,30.20
2017-08-09T17:39:32.467Z,29.80
2017-08-09T17:41:59.937Z,29.10
2017-08-09T17:44:27.418Z,29.00
2017-08-09T17:46:54.886Z,28.70
2017-08-09T17:49:23.137Z,28.40
2017-08-09T17:51:50.588Z,28.40
2017-08-09T17:54:18.067Z,28.40
2017-08-09T17:56:45.622Z,28.40
2017-08-09T17:59:13.096Z,28.30
2017-08-09T18:01:41.342Z,28.20
2017-08-09T18:04:08.810Z,28.20
2017-08-09T18:06:36.270Z,28.10
2017-08-09T18:09:03.743Z,28.10
2017-08-09T18:11:31.971Z,28.10
2017-08-09T18:13:59.433Z,28.10
2017-08-09T18:16:26.911Z,27.90
2017-08-09T18:18:54.378Z,27.80
2017-08-09T18:21:21.848Z,27.90
2017-08-09T18:23:49.314Z,27.80
2017-08-09T18:26:16.833Z,27.80
2017-08-09T18:28:44.288Z,27.80
2017-08-09T18:31:11.770Z,27.70
2017-08-09T18:33:39.991Z,27.50
2017-08-09T18:36:07.456Z,27.50
2017-08-09T18:38:34.938Z,27.50
2017-08-09T18:41:02.412Z,27.50
2017-08-09T18:43:29.908Z,27.40
2017-08-09T18:45:57.366Z,27.30
2017-08-09T18:48:24.984Z,27.30
2017-08-09T18:50:52.482Z,27.20
2017-08-09T18:53:19.947Z,27.10
2017-08-09T18:55:47.408Z,27.10
2017-08-09T18:58:14.873Z,27.00
2017-08-09T19:00:42.333Z,27.00
2017-08-09T19:03:09.790Z,26.90
2017-08-09T19:05:37.288Z,26.80
2017-08-09T19:08:04.817Z,26.80
2017-08-09T19:10:32.303Z,26.70
2017-08-09T19:12:59.778Z,26.70
2017-08-09T19:15:28.090Z,27.00
2017-08-09T19:17:55.553Z,27.10
2017-08-09T19:20:23.010Z,27.30
2017-08-09T19:22:50.504Z,27.50
2017-08-09T19:25:17.963Z,27.70
2017-08-09T19:27:45.416Z,27.90
2017-08-09T19:30:12.884Z,28.00
2017-08-09T19:32:40.349Z,28.10
2017-08-09T19:35:07.849Z,28.20
2017-08-09T19:37:35.305Z,28.30
2017-08-09T19:40:02.777Z,28.30
2017-08-09T19:42:30.243Z,28.40
2017-08-09T19:44:57.710Z,28.50
2017-08-09T19:47:25.165Z,28.50
2017-08-09T19:49:52.637Z,28.60
2017-08-09T19:52:20.090Z,28.60
2017-08-09T19:54:47.576Z,28.60
2017-08-09T19:57:15.043Z,28.60
2017-08-09T19:59:42.528Z,28.70
2017-08-09T20:02:10.037Z,28.70
2017-08-09T20:04:37.508Z,28.80
2017-08-09T20:07:05.742Z,28.80
2017-08-09T20:09:33.200Z,28.70
2017-08-09T20:12:00.676Z,28.80
2017-08-09T20:14:28.202Z,28.80
2017-08-09T20:16:55.686Z,28.80
2017-08-09T20:19:23.142Z,28.80
2017-08-09T20:21:50.608Z,28.80
2017-08-09T20:24:18.057Z,28.80
2017-08-09T20:26:45.528Z,28.80
2017-08-09T20:29:12.990Z,28.80
2017-08-09T20:31:40.458Z,28.80
2017-08-09T20:34:08.092Z,28.80
2017-08-09T20:36:35.552Z,28.80
2017-08-09T20:39:03.022Z,28.70
2017-08-09T20:41:30.485Z,28.70
2017-08-09T20:43:57.945Z,28.70
2017-08-09T20:46:26.186Z,28.70
2017-08-09T20:48:53.642Z,28.70
2017-08-09T20:51:21.109Z,28.70
2017-08-09T20:53:48.569Z,28.70
2017-08-09T20:56:16.033Z,28.70
2017-08-09T20:58:43.488Z,28.70
2017-08-09T21:01:10.949Z,28.70
2017-08-09T21:03:38.440Z,28.70
2017-08-09T21:06:06.672Z,28.70
2017-08-09T21:08:34.147Z,28.70
2017-08-09T21:11:01.693Z,28.70
2017-08-09T21:13:29.169Z,28.70
2017-08-09T21:15:56.648Z,28.70
2017-08-09T21:18:24.145Z,28.70
2017-08-09T21:20:51.640Z,28.70
2017-08-09T21:23:19.886Z,28.70
2017-08-09T21:25:47.362Z,28.70
2017-08-09T21:28:14.833Z,28.70
2017-08-09T21:30:42.309Z,28.70
2017-08-09T21:33:09.797Z,28.70
2017-08-09T21:35:37.261Z,28.60
2017-08-09T21:38:04.719Z,28.60
2017-08-09T21:40:32.190Z,28.60
2017-08-09T21:42:59.666Z,28.60
2017-08-09T21:45:27.146Z,28.60
2017-08-09T21:47:54.598Z,28.60
2017-08-09T21:50:22.831Z,28.50
2017-08-09T21:52:50.279Z,28.50
2017-08-09T21:55:17.730Z,28.50
2017-08-09T21:57:45.192Z,28.50
2017-08-09T22:00:12.662Z,28.50
2017-08-09T22:02:40.132Z,28.50
2017-08-09T22:05:07.634Z,28.50
2017-08-09T22:07:35.066Z,28.50
2017-08-09T22:10:02.526Z,28.50
2017-08-09T22:12:29.986Z,28.50
2017-08-09T22:14:57.462Z,28.50
2017-08-09T22:17:24.928Z,28.50
2017-08-09T22:19:52.385Z,28.50
2017-08-09T22:22:19.866Z,28.50
2017-08-09T22:24:47.314Z,28.50
2017-08-09T22:27:14.780Z,28.40
2017-08-09T22:29:42.232Z,28.30
2017-08-09T22:32:09.689Z,28.20
2017-08-09T22:34:37.144Z,28.10
2017-08-09T22:37:04.606Z,28.00
2017-08-09T22:39:32.054Z,27.90
2017-08-09T22:41:59.515Z,27.90
2017-08-09T22:44:26.999Z,27.80
2017-08-09T22:46:54.455Z,27.80
2017-08-09T22:49:22.096Z,27.70
2017-08-09T22:51:49.654Z,27.60
2017-08-09T22:54:17.105Z,27.60
2017-08-09T22:56:44.598Z,27.60
2017-08-09T22:59:12.089Z,27.60
2017-08-09T23:01:39.536Z,27.50
2017-08-09T23:04:06.989Z,27.50
2017-08-09T23:06:34.532Z,27.50
2017-08-09T23:09:02.003Z,27.40
2017-08-09T23:11:29.547Z,27.40
2017-08-09T23:13:56.986Z,27.40
2017-08-09T23:16:24.447Z,27.40
2017-08-09T23:18:51.999Z,27.30
2017-08-09T23:21:19.474Z,27.30
2017-08-09T23:23:46.926Z,27.30
2017-08-09T23:26:14.386Z,27.30
2017-08-09T23:28:41.960Z,27.20
2017-08-09T23:31:09.472Z,27.20
2017-08-09T23:33:36.963Z,27.20
2017-08-09T23:36:04.419Z,27.20
2017-08-09T23:38:31.876Z,27.20
2017-08-09T23:40:59.345Z,27.10
2017-08-09T23:43:26.792Z,27.10
2017-08-09T23:45:54.249Z,27.10
2017-08-09T23:48:21.705Z,27.10
2017-08-09T23:50:49.212Z,27.10
2017-08-09T23:53:16.696Z,27.10
2017-08-09T23:55:44.194Z,27.00
2017-08-09T23:58:11.765Z,27.00
